Rulo, Nebraska
Current Conditions -  °F | °C
As of 7:19 AM on Sunday 23 Nov 2014 (Local Time) from KFNB Reporting Station
Haze Haze  
Wind Chill: 53°   Ceiling: 500
Heat Index: 53°   Visibility: 2.5mi
Dew Point: 52°   Wind: 5mph
Humidity: 96%   Direction: 160°SSE
Pressure: 29.5"   Gusts: NA
Location:  40.05°N, 95.43°W
Report Text: KFNB 231319Z AUTO 16004KT 2 1/2SM BR OVC005 12/11 A2950 RMK AO2 RAE00 P0000 T01170111
Loading
Personal Weather Stations






























Interactive Weather Map New forecast layout! Learn more

10-Day Weather Forecast

Advertisements
Track Severe Weather on mobile